Time;durP1;ratioP1;P1;durP2;ratioP2;P2;SDS_P1;SDS_P2;PMS_P1;PMS_P2;Temp;Humidity;BMP_temperature;BMP_pressure;BME280_temperature;BME280_humidity;BME280_pressure;Samples;Min_cycle;Max_cycle;Signal;HPM_P1;HPM_P2
2023/07/15 00:01:23;;;;;;;;;;;;;;;20.56;60.55;100435.41;108320;1257;71123;-81
2023/07/15 00:03:52;;;;;;;;;;;;;;;20.57;60.63;100437.31;108443;1254;61262;-81
2023/07/15 00:06:21;;;;;;;;;;;;;;;20.57;60.47;100436.00;108414;1254;61165;-81
2023/07/15 00:08:48;;;;;;;;;;;;;;;20.59;60.42;100433.27;108385;1259;74637;-82
2023/07/15 00:11:17;;;;;;;;;;;;;;;20.60;60.13;100435.35;108355;1259;71444;-82
2023/07/15 00:13:44;;;;;;;;;;;;;;;20.60;59.88;100434.70;108462;1254;71315;-82
2023/07/15 00:16:11;;;;;;;;;;;;;;;20.60;59.66;100437.42;108322;1255;61243;-81
2023/07/15 00:18:38;;;;;;;;;;;;;;;20.61;59.59;100439.17;108263;1254;60452;-82
2023/07/15 00:21:32;;;;;;;;;;;;;;;20.60;59.35;100443.56;108278;1254;74696;-80
2023/07/15 00:24:00;;;;;;;;;;;;;;;20.60;59.49;100440.15;108425;1255;72969;-82
2023/07/15 00:26:32;;;;;;;;;;;;;;;20.60;59.57;100443.02;108483;1259;71305;-81
2023/07/15 00:29:00;;;;;;;;;;;;;;;20.60;59.48;100445.56;108198;1254;63264;-81
2023/07/15 00:31:27;;;;;;;;;;;;;;;20.58;59.44;100445.41;108214;1260;61480;-82
2023/07/15 00:33:56;;;;;;;;;;;;;;;20.57;59.37;100446.05;108332;1258;73840;-81
2023/07/15 00:36:23;;;;;;;;;;;;;;;20.56;59.51;100446.73;108252;1259;71494;-81
2023/07/15 00:38:51;;;;;;;;;;;;;;;20.54;59.59;100450.13;108387;1254;73026;-81
2023/07/15 00:41:27;;;;;;;;;;;;;;;20.48;59.60;100452.04;108390;1255;61750;-81
2023/07/15 00:44:01;;;;;;;;;;;;;;;20.45;59.58;100452.05;108258;1254;60965;-80
2023/07/15 00:46:31;;;;;;;;;;;;;;;20.42;59.60;100454.41;108247;1254;74488;-80
2023/07/15 00:49:11;;;;;;;;;;;;;;;20.39;59.49;100457.33;108401;1259;72969;-82
2023/07/15 00:51:40;;;;;;;;;;;;;;;20.39;59.61;100460.20;108336;1254;72830;-82
2023/07/15 00:54:09;;;;;;;;;;;;;;;20.38;59.43;100460.09;108335;1254;61020;-81
2023/07/15 00:56:38;;;;;;;;;;;;;;;20.38;59.34;100458.94;108303;1254;59960;-81
2023/07/15 00:59:08;;;;;;;;;;;;;;;20.37;59.22;100457.95;108204;1254;73241;-81
2023/07/15 01:01:35;;;;;;;;;;;;;;;20.35;59.28;100463.90;108204;1254;71404;-81
2023/07/15 01:04:07;;;;;;;;;;;;;;;20.30;59.35;100461.84;108202;1260;71251;-81
2023/07/15 01:06:35;;;;;;;;;;;;;;;20.26;59.36;100462.45;108104;1259;61990;-81
2023/07/15 01:09:07;;;;;;;;;;;;;;;20.25;59.46;100464.56;108241;1254;61118;-82
2023/07/15 01:11:35;;;;;;;;;;;;;;;20.23;59.47;100463.06;108215;1254;74645;-81
2023/07/15 01:14:06;;;;;;;;;;;;;;;20.22;59.69;100465.63;108171;1254;71865;-84
2023/07/15 01:16:33;;;;;;;;;;;;;;;20.21;59.85;100465.80;108229;1254;72659;-82
2023/07/15 01:19:00;;;;;;;;;;;;;;;20.20;59.91;100462.34;108178;1255;61954;-81
2023/07/15 01:21:28;;;;;;;;;;;;;;;20.18;59.72;100463.96;108098;1255;61094;-81
2023/07/15 01:23:55;;;;;;;;;;;;;;;20.15;59.76;100466.96;108213;1258;73968;-82
2023/07/15 01:26:23;;;;;;;;;;;;;;;20.13;59.67;100463.61;108201;1259;72693;-82
2023/07/15 01:28:50;;;;;;;;;;;;;;;20.11;59.66;100470.58;108227;1254;72596;-81
2023/07/15 01:31:19;;;;;;;;;;;;;;;20.11;59.87;100473.83;108167;1254;62315;-81
2023/07/15 01:33:47;;;;;;;;;;;;;;;20.10;59.82;100478.80;108156;1255;61111;-82
2023/07/15 01:36:14;;;;;;;;;;;;;;;20.08;59.87;100481.08;108189;1254;74712;-81
2023/07/15 01:38:41;;;;;;;;;;;;;;;20.07;60.03;100484.10;108224;1254;72686;-82
2023/07/15 01:41:11;;;;;;;;;;;;;;;20.05;59.95;100482.33;108179;1258;72742;-81
2023/07/15 01:43:40;;;;;;;;;;;;;;;20.03;60.02;100485.04;108190;1260;61912;-83
2023/07/15 01:46:17;;;;;;;;;;;;;;;20.01;60.08;100481.54;108208;1258;60072;-82
2023/07/15 01:48:50;;;;;;;;;;;;;;;19.98;60.10;100484.02;108240;1254;74465;-82
2023/07/15 01:51:24;;;;;;;;;;;;;;;19.96;60.36;100485.66;108241;1254;71946;-81
2023/07/15 01:54:01;;;;;;;;;;;;;;;19.95;60.37;100488.09;108162;1259;72483;-82
2023/07/15 01:56:41;;;;;;;;;;;;;;;19.88;60.51;100491.67;108188;1254;61221;-82
2023/07/15 01:59:10;;;;;;;;;;;;;;;19.93;60.42;100493.13;108164;1254;61172;-82
2023/07/15 02:01:49;;;;;;;;;;;;;;;19.93;60.39;100498.39;108177;1259;74715;-82
2023/07/15 02:04:38;;;;;;;;;;;;;;;19.93;60.63;100502.47;108200;1259;71611;-82
2023/07/15 02:07:14;;;;;;;;;;;;;;;19.92;60.55;100502.05;108151;1254;72650;-82
2023/07/15 02:09:50;;;;;;;;;;;;;;;19.91;60.73;100504.67;108208;1254;62260;-82
2023/07/15 02:12:40;;;;;;;;;;;;;;;19.83;60.96;100507.34;108218;1254;61189;-82
2023/07/15 02:15:40;;;;;;;;;;;;;;;19.91;60.89;100509.39;108122;1254;74643;-82
2023/07/15 02:18:35;;;;;;;;;;;;;;;19.97;60.75;100509.60;108219;1254;72687;-82
2023/07/15 02:21:36;;;;;;;;;;;;;;;19.98;60.65;100507.98;108246;1254;73487;-82
2023/07/15 02:24:31;;;;;;;;;;;;;;;19.98;60.49;100507.77;108316;1254;63101;-82
2023/07/15 02:27:32;;;;;;;;;;;;;;;19.98;60.49;100511.74;108225;1254;61235;-82
2023/07/15 02:30:31;;;;;;;;;;;;;;;19.97;60.52;100515.35;108149;1254;74697;-82
2023/07/15 02:33:27;;;;;;;;;;;;;;;19.98;60.40;100516.09;108212;1259;71654;-81
2023/07/15 02:36:24;;;;;;;;;;;;;;;19.96;60.34;100514.23;108204;1254;71481;-80
2023/07/15 02:39:22;;;;;;;;;;;;;;;19.90;60.15;100516.56;108191;1254;60604;-82
2023/07/15 02:42:12;;;;;;;;;;;;;;;19.87;59.98;100520.30;108182;1254;61136;-82
2023/07/15 02:44:50;;;;;;;;;;;;;;;19.87;59.90;100523.23;108137;1254;73908;-83
2023/07/15 02:47:43;;;;;;;;;;;;;;;19.89;60.04;100523.70;108182;1254;73145;-83
2023/07/15 02:50:19;;;;;;;;;;;;;;;19.92;59.79;100526.61;108232;1254;71203;-82
2023/07/15 02:53:03;;;;;;;;;;;;;;;19.96;59.78;100528.88;108282;1254;62153;-82
2023/07/15 02:55:59;;;;;;;;;;;;;;;20.00;59.62;100526.86;108318;1259;59990;-82
2023/07/15 02:58:42;;;;;;;;;;;;;;;20.04;59.56;100528.77;108360;1259;75014;-82
2023/07/15 03:01:27;;;;;;;;;;;;;;;20.10;59.56;100527.93;108414;1254;71395;-83
2023/07/15 03:04:20;;;;;;;;;;;;;;;20.17;59.52;100532.81;108413;1259;72479;-83
2023/07/15 03:06:59;;;;;;;;;;;;;;;20.21;59.40;100532.60;108462;1254;62326;-83
2023/07/15 03:09:34;;;;;;;;;;;;;;;20.27;59.47;100535.71;108498;1254;59871;-82
2023/07/15 03:12:17;;;;;;;;;;;;;;;20.33;59.47;100538.31;108551;1258;74563;-82
2023/07/15 03:15:09;;;;;;;;;;;;;;;20.32;59.35;100540.98;108631;1254;71341;-83
2023/07/15 03:17:46;;;;;;;;;;;;;;;20.34;59.42;100540.45;108588;1254;71518;-82
2023/07/15 03:20:31;;;;;;;;;;;;;;;20.39;59.26;100543.35;108448;1254;61668;-83
2023/07/15 03:23:26;;;;;;;;;;;;;;;20.46;58.95;100537.97;108424;1254;59391;-82
2023/07/15 03:26:42;;;;;;;;;;;;;;;20.52;58.98;100535.54;108302;1254;74899;-81
2023/07/15 03:29:24;;;;;;;;;;;;;;;20.69;58.48;100537.63;108305;1256;73815;-84
2023/07/15 03:32:23;;;;;;;;;;;;;;;20.77;58.09;100536.60;108041;1257;70606;-82
2023/07/15 03:35:17;;;;;;;;;;;;;;;20.86;58.00;100537.88;108037;1256;62050;-82
2023/07/15 03:38:10;;;;;;;;;;;;;;;20.91;57.95;100535.59;108150;1257;61266;-82
2023/07/15 03:41:00;;;;;;;;;;;;;;;20.97;57.57;100534.27;108162;1256;76036;-82
2023/07/15 03:43:55;;;;;;;;;;;;;;;21.03;57.36;100538.34;108155;1256;71493;-82
2023/07/15 03:46:54;;;;;;;;;;;;;;;21.11;57.28;100543.67;108156;1257;71586;-83
2023/07/15 03:49:35;;;;;;;;;;;;;;;21.17;57.19;100548.33;108031;1260;61136;-81
2023/07/15 03:52:26;;;;;;;;;;;;;;;21.23;57.11;100552.90;108036;1257;61280;-82
2023/07/15 03:55:05;;;;;;;;;;;;;;;21.25;56.85;100548.66;108040;1257;75410;-83
2023/07/15 03:57:51;;;;;;;;;;;;;;;21.28;56.64;100550.10;108173;1259;71446;-83
2023/07/15 04:00:38;;;;;;;;;;;;;;;21.33;56.78;100548.39;108169;1257;71315;-83
2023/07/15 04:03:22;;;;;;;;;;;;;;;21.38;56.39;100553.70;108088;1255;61167;-83
2023/07/15 04:06:33;;;;;;;;;;;;;;;21.43;56.09;100555.03;108192;1257;61151;-83
2023/07/15 04:09:11;;;;;;;;;;;;;;;21.49;56.04;100555.13;108134;1254;75018;-83
2023/07/15 04:11:39;;;;;;;;;;;;;;;21.55;55.80;100553.61;108188;1257;72666;-83
2023/07/15 04:14:07;;;;;;;;;;;;;;;21.60;55.95;100553.73;108168;1259;72557;-81
2023/07/15 04:16:33;;;;;;;;;;;;;;;21.64;55.70;100558.53;108194;1254;61285;-82
2023/07/15 04:19:01;;;;;;;;;;;;;;;21.67;55.57;100561.83;108165;1254;61886;-83
2023/07/15 04:21:28;;;;;;;;;;;;;;;21.72;55.61;100562.34;108178;1254;74615;-82
2023/07/15 04:23:55;;;;;;;;;;;;;;;21.78;55.42;100559.52;108194;1254;72424;-81
2023/07/15 04:26:25;;;;;;;;;;;;;;;21.83;55.25;100563.35;108135;1257;72395;-83
2023/07/15 04:28:53;;;;;;;;;;;;;;;21.78;55.44;100562.55;108130;1257;61964;-81
2023/07/15 04:31:20;;;;;;;;;;;;;;;21.84;55.04;100571.91;108140;1255;61124;-81
2023/07/15 04:33:47;;;;;;;;;;;;;;;21.88;55.05;100569.45;108107;1259;73449;-81
2023/07/15 04:36:14;;;;;;;;;;;;;;;21.93;54.97;100570.24;108191;1254;71981;-82
2023/07/15 04:38:42;;;;;;;;;;;;;;;22.00;54.92;100572.27;108186;1254;70517;-81
2023/07/15 04:41:10;;;;;;;;;;;;;;;22.06;54.53;100572.34;108211;1254;61283;-81
2023/07/15 04:43:37;;;;;;;;;;;;;;;22.12;54.81;100578.30;108153;1254;61269;-82
2023/07/15 04:46:04;;;;;;;;;;;;;;;22.19;54.72;100583.67;108154;1255;74740;-82
2023/07/15 04:48:31;;;;;;;;;;;;;;;22.26;54.37;100580.30;108208;1254;72521;-81
2023/07/15 04:50:59;;;;;;;;;;;;;;;22.34;54.00;100583.84;108149;1258;72475;-82
2023/07/15 04:53:26;;;;;;;;;;;;;;;22.41;54.06;100586.34;108153;1254;61298;-82
2023/07/15 04:55:54;;;;;;;;;;;;;;;22.49;53.94;100589.34;108180;1254;61642;-83
2023/07/15 04:58:22;;;;;;;;;;;;;;;22.56;53.34;100588.98;108142;1254;74935;-82
2023/07/15 05:00:49;;;;;;;;;;;;;;;22.58;53.14;100590.67;108159;1254;74059;-81
2023/07/15 05:03:16;;;;;;;;;;;;;;;22.56;52.79;100594.66;108133;1254;72753;-81
2023/07/15 05:05:46;;;;;;;;;;;;;;;22.59;52.89;100595.36;108140;1254;61102;-81
2023/07/15 05:08:16;;;;;;;;;;;;;;;22.60;52.85;100591.76;108128;1254;61237;-82
2023/07/15 05:10:45;;;;;;;;;;;;;;;22.56;53.10;100599.39;108153;1254;74484;-80
2023/07/15 05:13:12;;;;;;;;;;;;;;;22.59;52.80;100595.05;108132;1254;71447;-81
2023/07/15 05:15:39;;;;;;;;;;;;;;;22.63;53.00;100598.08;108156;1254;72662;-82
2023/07/15 05:18:07;;;;;;;;;;;;;;;22.68;52.97;100599.48;108117;1254;61875;-81
2023/07/15 05:20:34;;;;;;;;;;;;;;;22.84;52.82;100598.30;108176;1254;61157;-82
2023/07/15 05:23:02;;;;;;;;;;;;;;;22.95;52.64;100597.77;108161;1258;74679;-81
2023/07/15 05:25:29;;;;;;;;;;;;;;;23.00;51.86;100597.70;108199;1254;71672;-82
2023/07/15 05:27:56;;;;;;;;;;;;;;;23.07;51.74;100599.92;108157;1254;72507;-79
2023/07/15 05:30:23;;;;;;;;;;;;;;;23.14;51.17;100596.67;108142;1258;62060;-80
2023/07/15 05:32:49;;;;;;;;;;;;;;;23.21;51.36;100600.31;108192;1254;61311;-82
2023/07/15 05:35:17;;;;;;;;;;;;;;;23.29;51.53;100598.06;108164;1254;74562;-82
2023/07/15 05:37:45;;;;;;;;;;;;;;;23.38;51.11;100602.88;108181;1254;72830;-82
2023/07/15 05:40:12;;;;;;;;;;;;;;;23.43;50.92;100603.59;108185;1254;72578;-81
2023/07/15 05:42:40;;;;;;;;;;;;;;;23.46;50.59;100608.41;108144;1254;61151;-81
2023/07/15 05:45:07;;;;;;;;;;;;;;;23.46;50.42;100605.30;108174;1254;61350;-82
2023/07/15 05:47:34;;;;;;;;;;;;;;;23.51;50.59;100602.08;108173;1254;74638;-81
2023/07/15 05:50:01;;;;;;;;;;;;;;;23.53;50.28;100605.90;108136;1259;72484;-81
2023/07/15 05:52:31;;;;;;;;;;;;;;;23.60;50.68;100605.27;108164;1254;74049;-81
2023/07/15 05:54:58;;;;;;;;;;;;;;;23.71;50.28;100602.77;108130;1254;61247;-81
2023/07/15 05:57:24;;;;;;;;;;;;;;;23.78;49.99;100604.08;108167;1254;61133;-80
2023/07/15 05:59:51;;;;;;;;;;;;;;;23.80;49.62;100601.42;108157;1254;74720;-81
2023/07/15 06:02:18;;;;;;;;;;;;;;;23.84;49.71;100605.20;108147;1254;72891;-81
2023/07/15 06:04:45;;;;;;;;;;;;;;;23.89;49.48;100607.83;108092;1254;71451;-81
2023/07/15 06:07:12;;;;;;;;;;;;;;;23.94;49.32;100610.48;108141;1259;61184;-81
2023/07/15 06:09:41;;;;;;;;;;;;;;;24.00;49.29;100605.13;108163;1254;60155;-80
2023/07/15 06:12:07;;;;;;;;;;;;;;;24.05;49.20;100608.23;108160;1255;74670;-81
2023/07/15 06:14:35;;;;;;;;;;;;;;;24.17;49.47;100607.46;108146;1254;72734;-81
2023/07/15 06:17:02;;;;;;;;;;;;;;;24.31;49.25;100610.80;108121;1256;72619;-81
2023/07/15 06:19:29;;;;;;;;;;;;;;;24.34;48.92;100609.65;108132;1254;62044;-81
2023/07/15 06:21:56;;;;;;;;;;;;;;;24.42;48.40;100611.91;108188;1254;60100;-80
2023/07/15 06:24:23;;;;;;;;;;;;;;;24.52;48.03;100610.08;108104;1254;75563;-80
2023/07/15 06:26:50;;;;;;;;;;;;;;;24.62;47.96;100607.85;108140;1254;72761;-79
2023/07/15 06:29:18;;;;;;;;;;;;;;;24.74;47.82;100611.12;108137;1254;72941;-80
2023/07/15 06:31:45;;;;;;;;;;;;;;;24.80;46.69;100611.28;108134;1254;61215;-80
2023/07/15 06:34:12;;;;;;;;;;;;;;;24.84;46.47;100610.20;108182;1254;61765;-80
2023/07/15 06:36:41;;;;;;;;;;;;;;;24.88;46.24;100614.27;108191;1254;74664;-81
2023/07/15 06:39:08;;;;;;;;;;;;;;;24.92;46.16;100614.75;108175;1254;71478;-78
2023/07/15 06:41:34;;;;;;;;;;;;;;;24.93;45.42;100611.42;108138;1254;71647;-81
2023/07/15 06:44:01;;;;;;;;;;;;;;;24.95;46.13;100614.07;108176;1254;61136;-82
2023/07/15 06:46:28;;;;;;;;;;;;;;;25.02;45.86;100616.50;108233;1254;61353;-80
2023/07/15 06:48:55;;;;;;;;;;;;;;;25.09;45.47;100610.42;108172;1254;74722;-79
2023/07/15 06:51:22;;;;;;;;;;;;;;;25.19;45.57;100612.57;108173;1254;72723;-81
2023/07/15 06:53:49;;;;;;;;;;;;;;;25.28;45.40;100614.55;108136;1254;72576;-81
2023/07/15 06:56:16;;;;;;;;;;;;;;;25.36;45.46;100615.46;108158;1254;61109;-80
2023/07/15 06:58:47;;;;;;;;;;;;;;;25.48;45.06;100616.41;108119;1254;61259;-80
2023/07/15 07:01:14;;;;;;;;;;;;;;;25.58;44.82;100612.10;108146;1254;74714;-79
2023/07/15 07:03:44;;;;;;;;;;;;;;;25.62;44.58;100612.44;108163;1254;72564;-80
2023/07/15 07:06:11;;;;;;;;;;;;;;;25.67;44.42;100616.06;108112;1255;72741;-80
2023/07/15 07:08:39;;;;;;;;;;;;;;;25.75;44.16;100617.41;108152;1254;61406;-81
2023/07/15 07:11:05;;;;;;;;;;;;;;;25.86;44.47;100615.48;108189;1254;61264;-79
2023/07/15 07:13:32;;;;;;;;;;;;;;;25.94;44.27;100617.52;108150;1254;73503;-80
2023/07/15 07:16:00;;;;;;;;;;;;;;;26.03;44.10;100619.20;108174;1254;72799;-80
2023/07/15 07:18:26;;;;;;;;;;;;;;;26.14;44.11;100618.70;108181;1257;71299;-80
2023/07/15 07:20:57;;;;;;;;;;;;;;;26.22;42.87;100626.38;108211;1254;60975;-81
2023/07/15 07:23:24;;;;;;;;;;;;;;;26.16;42.37;100630.41;108221;1254;61360;-81
2023/07/15 07:25:52;;;;;;;;;;;;;;;26.16;42.72;100627.59;108197;1258;73282;-81
2023/07/15 07:28:23;;;;;;;;;;;;;;;26.22;42.47;100630.77;108161;1254;72771;-81
2023/07/15 07:30:50;;;;;;;;;;;;;;;26.31;42.44;100635.23;108161;1254;71407;-81
2023/07/15 07:33:19;;;;;;;;;;;;;;;26.33;42.17;100635.20;108189;1254;61243;-81
2023/07/15 07:35:49;;;;;;;;;;;;;;;26.44;42.51;100636.44;108220;1254;61167;-81
2023/07/15 07:38:16;;;;;;;;;;;;;;;26.67;41.74;100637.41;108211;1254;73395;-78
2023/07/15 07:40:44;;;;;;;;;;;;;;;26.80;40.88;100642.42;108160;1254;72697;-79
2023/07/15 07:43:12;;;;;;;;;;;;;;;26.90;40.30;100640.08;108159;1254;72614;-78
2023/07/15 07:45:39;;;;;;;;;;;;;;;26.97;40.34;100636.91;108132;1254;61143;-78
2023/07/15 07:48:06;;;;;;;;;;;;;;;26.99;40.10;100639.15;108163;1254;61292;-81
2023/07/15 07:50:34;;;;;;;;;;;;;;;27.02;40.08;100638.25;108189;1254;74681;-80
2023/07/15 07:53:02;;;;;;;;;;;;;;;27.06;38.97;100644.74;108156;1254;72945;-80
2023/07/15 07:55:30;;;;;;;;;;;;;;;27.05;39.10;100643.70;108106;1257;72575;-80
2023/07/15 07:57:57;;;;;;;;;;;;;;;27.05;39.26;100643.69;108086;1259;61286;-80
2023/07/15 08:00:24;;;;;;;;;;;;;;;27.13;39.32;100650.58;108165;1254;61115;-79
2023/07/15 08:02:51;;;;;;;;;;;;;;;27.21;39.31;100644.30;108111;1254;75835;-80
2023/07/15 08:05:18;;;;;;;;;;;;;;;27.39;39.39;100647.31;108088;1256;72215;-81
2023/07/15 08:07:45;;;;;;;;;;;;;;;27.50;38.85;100641.52;108012;1259;72589;-80
2023/07/15 08:10:12;;;;;;;;;;;;;;;27.54;39.05;100645.97;107992;1257;61192;-80
2023/07/15 08:12:40;;;;;;;;;;;;;;;27.56;39.05;100648.27;108032;1255;61318;-80
2023/07/15 08:15:06;;;;;;;;;;;;;;;27.66;38.68;100647.41;108086;1256;64491;-81
2023/07/15 08:17:36;;;;;;;;;;;;;;;27.65;38.33;100644.33;108128;1256;64065;-81
2023/07/15 08:20:03;;;;;;;;;;;;;;;27.73;38.67;100647.27;108048;1255;72456;-80
2023/07/15 08:22:31;;;;;;;;;;;;;;;27.80;37.73;100652.48;108074;1257;61276;-80
2023/07/15 08:24:58;;;;;;;;;;;;;;;27.86;38.06;100650.27;108152;1255;61106;-80
2023/07/15 08:27:25;;;;;;;;;;;;;;;27.97;38.44;100648.32;108156;1257;67074;-80
2023/07/15 08:29:52;;;;;;;;;;;;;;;28.11;37.85;100644.70;108145;1256;72650;-80
2023/07/15 08:32:19;;;;;;;;;;;;;;;28.12;37.36;100646.29;108080;1259;72515;-79
2023/07/15 08:34:58;;;;;;;;;;;;;;;28.09;36.67;100643.75;108177;1254;61160;-80
2023/07/15 08:37:25;;;;;;;;;;;;;;;28.06;36.04;100646.54;108139;1254;61292;-80
2023/07/15 08:39:52;;;;;;;;;;;;;;;28.10;36.39;100645.73;108209;1254;74653;-81
2023/07/15 08:42:19;;;;;;;;;;;;;;;28.16;36.46;100645.63;108133;1256;63944;-80
2023/07/15 08:44:47;;;;;;;;;;;;;;;28.24;36.35;100641.48;108161;1254;63950;-80
2023/07/15 08:47:16;;;;;;;;;;;;;;;28.31;36.59;100632.93;108146;1254;61029;-80
2023/07/15 08:49:43;;;;;;;;;;;;;;;28.44;36.84;100632.08;108174;1254;61090;-81
2023/07/15 08:52:10;;;;;;;;;;;;;;;28.58;36.72;100629.16;108135;1254;66157;-79
2023/07/15 08:54:38;;;;;;;;;;;;;;;28.68;36.03;100629.02;108158;1254;64394;-80
2023/07/15 08:57:06;;;;;;;;;;;;;;;28.69;35.91;100626.28;108180;1254;63801;-80
2023/07/15 08:59:33;;;;;;;;;;;;;;;28.73;34.94;100624.90;108145;1254;61288;-79
2023/07/15 09:02:00;;;;;;;;;;;;;;;28.79;34.75;100627.15;108160;1254;60419;-79
2023/07/15 09:04:29;;;;;;;;;;;;;;;28.84;34.00;100630.19;108132;1258;64864;-79
2023/07/15 09:06:57;;;;;;;;;;;;;;;28.82;33.77;100625.14;108205;1254;64142;-81
2023/07/15 09:09:54;;;;;;;;;;;;;;;28.83;33.91;100622.80;108162;1254;64192;-80
2023/07/15 09:12:26;;;;;;;;;;;;;;;28.87;34.29;100619.91;108083;1254;61259;-81
2023/07/15 09:14:55;;;;;;;;;;;;;;;28.96;34.16;100620.15;108175;1254;61116;-80
2023/07/15 09:17:24;;;;;;;;;;;;;;;29.11;33.83;100627.84;108183;1254;74712;-80
2023/07/15 09:19:51;;;;;;;;;;;;;;;29.27;32.97;100623.80;108135;1254;64251;-80
2023/07/15 09:22:18;;;;;;;;;;;;;;;29.29;33.28;100620.81;108137;1257;63818;-80
2023/07/15 09:24:45;;;;;;;;;;;;;;;29.38;32.85;100629.91;108152;1254;61018;-82
2023/07/15 09:27:14;;;;;;;;;;;;;;;29.51;32.81;100627.95;108177;1254;61154;-80
2023/07/15 09:29:41;;;;;;;;;;;;;;;29.57;32.49;100625.48;108184;1254;65943;-81
2023/07/15 09:32:08;;;;;;;;;;;;;;;29.67;32.12;100624.60;108116;1255;64251;-81
2023/07/15 09:34:39;;;;;;;;;;;;;;;29.71;32.13;100630.60;108125;1259;64068;-81
2023/07/15 09:37:07;;;;;;;;;;;;;;;29.71;32.38;100630.05;108171;1256;61963;-80
2023/07/15 09:39:34;;;;;;;;;;;;;;;29.76;32.25;100629.54;108105;1256;59198;-81
2023/07/15 09:42:07;;;;;;;;;;;;;;;29.87;31.68;100631.95;108160;1256;66029;-80
2023/07/15 09:44:41;;;;;;;;;;;;;;;29.95;30.66;100627.72;108102;1256;62830;-81
2023/07/15 09:47:07;;;;;;;;;;;;;;;29.98;30.71;100626.71;108107;1256;64052;-80
2023/07/15 09:49:35;;;;;;;;;;;;;;;29.98;30.95;100629.33;107971;1260;61228;-83
2023/07/15 09:52:05;;;;;;;;;;;;;;;30.01;31.15;100632.63;108151;1255;61154;-83
2023/07/15 09:54:32;;;;;;;;;;;;;;;30.07;31.26;100628.31;108113;1256;65855;-81
2023/07/15 09:57:00;;;;;;;;;;;;;;;30.15;30.90;100629.20;108131;1257;63839;-81
2023/07/15 09:59:28;;;;;;;;;;;;;;;30.32;30.79;100630.15;108160;1255;64103;-81
2023/07/15 10:01:56;;;;;;;;;;;;;;;30.41;30.14;100628.20;108146;1254;61279;-81
2023/07/15 10:04:33;;;;;;;;;;;;;;;30.32;29.90;100622.84;108173;1254;59953;-81
2023/07/15 10:07:00;;;;;;;;;;;;;;;30.25;29.79;100620.23;108174;1254;65861;-82
2023/07/15 10:09:29;;;;;;;;;;;;;;;30.19;29.39;100622.08;108199;1254;63938;-81
2023/07/15 10:11:56;;;;;;;;;;;;;;;30.04;29.85;100617.69;108171;1254;64108;-81
2023/07/15 10:14:26;;;;;;;;;;;;;;;30.02;29.85;100615.41;108154;1254;61280;-81
2023/07/15 10:17:12;;;;;;;;;;;;;;;30.09;29.46;100611.96;108179;1254;59461;-81
2023/07/15 10:19:40;;;;;;;;;;;;;;;30.22;29.49;100613.76;108157;1254;74530;-81
2023/07/15 10:22:08;;;;;;;;;;;;;;;30.20;29.03;100615.95;108162;1254;65058;-80
2023/07/15 10:24:34;;;;;;;;;;;;;;;30.06;29.77;100617.30;108178;1254;64165;-81
2023/07/15 10:27:05;;;;;;;;;;;;;;;29.99;29.78;100617.52;108179;1254;61250;-80
2023/07/15 10:29:32;;;;;;;;;;;;;;;29.82;30.43;100616.58;108173;1254;61295;-81
2023/07/15 10:32:08;;;;;;;;;;;;;;;29.70;30.68;100613.92;107981;1254;66692;-81
2023/07/15 10:34:39;;;;;;;;;;;;;;;29.76;31.15;100610.65;107976;1254;64003;-82
2023/07/15 10:37:07;;;;;;;;;;;;;;;29.85;30.81;100603.45;108005;1254;63882;-82
2023/07/15 10:39:35;;;;;;;;;;;;;;;29.96;30.51;100594.38;108069;1254;61245;-82
2023/07/15 10:42:14;;;;;;;;;;;;;;;29.98;30.75;100594.69;108165;1254;61532;-82
2023/07/15 10:44:44;;;;;;;;;;;;;;;30.03;30.32;100595.96;108154;1254;74472;-84
2023/07/15 10:47:14;;;;;;;;;;;;;;;30.07;29.84;100591.89;108076;1256;64168;-82
2023/07/15 10:49:42;;;;;;;;;;;;;;;30.12;30.34;100587.49;108036;1258;64939;-82
2023/07/15 10:52:09;;;;;;;;;;;;;;;30.20;30.23;100595.48;108117;1254;61340;-82
2023/07/15 10:54:37;;;;;;;;;;;;;;;30.20;29.88;100593.91;108051;1254;61216;-82
2023/07/15 10:57:11;;;;;;;;;;;;;;;30.12;30.52;100588.59;108008;1255;65899;-82
2023/07/15 10:59:39;;;;;;;;;;;;;;;30.02;30.96;100597.06;108044;1256;64071;-82
2023/07/15 11:02:06;;;;;;;;;;;;;;;29.92;30.41;100592.85;108055;1255;64101;-81
2023/07/15 11:04:35;;;;;;;;;;;;;;;29.81;30.38;100594.15;108030;1254;61211;-79
2023/07/15 11:07:05;;;;;;;;;;;;;;;29.85;30.55;100595.27;108094;1255;59989;-79
2023/07/15 11:09:41;;;;;;;;;;;;;;;30.01;30.04;100595.48;108113;1254;66069;-79
2023/07/15 11:12:09;;;;;;;;;;;;;;;30.20;29.57;100591.30;108094;1256;64393;-78
2023/07/15 11:14:40;;;;;;;;;;;;;;;30.33;30.17;100591.27;108080;1254;63967;-78
2023/07/15 11:17:10;;;;;;;;;;;;;;;30.34;30.29;100593.55;108019;1254;61128;-79
2023/07/15 11:19:37;;;;;;;;;;;;;;;30.26;29.62;100593.91;108105;1254;59278;-78
2023/07/15 11:22:04;;;;;;;;;;;;;;;30.13;29.60;100592.85;108061;1254;65792;-77
2023/07/15 11:24:31;;;;;;;;;;;;;;;30.02;30.22;100592.18;108172;1254;63896;-77
2023/07/15 11:27:01;;;;;;;;;;;;;;;29.94;30.37;100591.52;107947;1254;63656;-77
2023/07/15 11:29:28;;;;;;;;;;;;;;;29.83;30.20;100595.81;107998;1256;61226;-76
2023/07/15 11:31:55;;;;;;;;;;;;;;;29.70;30.56;100593.08;108071;1255;61129;-79
2023/07/15 11:34:27;;;;;;;;;;;;;;;29.67;31.05;100592.20;107902;1256;66148;-78
2023/07/15 11:36:53;;;;;;;;;;;;;;;29.77;31.39;100591.47;104134;1256;5227930;-78
2023/07/15 11:39:21;;;;;;;;;;;;;;;29.93;30.65;100597.98;107685;1256;61160;-78
2023/07/15 11:41:50;;;;;;;;;;;;;;;30.05;29.93;100595.56;108021;1255;61340;-77
2023/07/15 11:44:20;;;;;;;;;;;;;;;30.05;29.06;100593.61;108038;1254;59246;-86
2023/07/15 11:46:47;;;;;;;;;;;;;;;30.01;29.27;100592.02;108121;1259;66069;-85
2023/07/15 11:49:23;;;;;;;;;;;;;;;29.89;29.60;100590.25;108116;1256;64240;-84
2023/07/15 11:51:53;;;;;;;;;;;;;;;29.76;29.52;100590.52;108155;1255;62723;-85
2023/07/15 11:54:20;;;;;;;;;;;;;;;29.74;29.84;100586.56;108115;1254;61285;-85
2023/07/15 11:56:47;;;;;;;;;;;;;;;29.80;30.15;100581.48;108049;1254;59246;-85
2023/07/15 11:59:27;;;;;;;;;;;;;;;29.87;30.10;100579.55;108147;1255;66731;-86
2023/07/15 12:01:56;;;;;;;;;;;;;;;29.90;29.79;100576.64;108171;1254;64179;-85
2023/07/15 12:04:26;;;;;;;;;;;;;;;29.85;29.69;100576.23;108129;1254;64095;-85
2023/07/15 12:06:53;;;;;;;;;;;;;;;29.81;29.95;100575.02;108098;1254;61113;-85
2023/07/15 12:09:21;;;;;;;;;;;;;;;29.79;29.79;100572.27;108153;1254;61263;-87
2023/07/15 12:11:50;;;;;;;;;;;;;;;29.81;29.76;100572.44;108136;1256;64820;-86
2023/07/15 12:14:17;;;;;;;;;;;;;;;29.87;29.67;100569.86;108120;1256;63893;-86
2023/07/15 12:16:45;;;;;;;;;;;;;;;29.85;29.61;100570.33;108009;1256;64177;-87
2023/07/15 12:19:12;;;;;;;;;;;;;;;29.87;28.73;100570.98;108104;1255;61290;-86
2023/07/15 12:21:40;;;;;;;;;;;;;;;29.99;28.58;100570.61;108102;1256;61176;-84
2023/07/15 12:24:07;;;;;;;;;;;;;;;30.13;28.49;100571.12;108141;1256;64623;-85
2023/07/15 12:26:35;;;;;;;;;;;;;;;30.18;28.31;100571.14;108193;1254;64111;-84
2023/07/15 12:29:03;;;;;;;;;;;;;;;30.21;28.93;100568.79;108142;1256;64053;-84
2023/07/15 12:31:30;;;;;;;;;;;;;;;30.12;29.31;100567.02;108168;1254;61248;-85
2023/07/15 12:33:57;;;;;;;;;;;;;;;30.05;29.39;100569.69;108128;1254;59632;-84
2023/07/15 12:36:23;;;;;;;;;;;;;;;29.94;29.57;100570.52;108154;1256;65828;-89
2023/07/15 12:38:50;;;;;;;;;;;;;;;29.79;29.30;100568.20;108117;1256;65385;-86
2023/07/15 12:41:19;;;;;;;;;;;;;;;29.58;29.67;100566.18;108150;1255;64091;-87
2023/07/15 12:43:46;;;;;;;;;;;;;;;29.42;30.39;100566.73;108127;1254;59030;-82
2023/07/15 12:46:13;;;;;;;;;;;;;;;29.33;30.92;100562.75;108104;1255;61267;-83
2023/07/15 12:48:41;;;;;;;;;;;;;;;29.28;31.63;100564.06;107976;1258;65778;-82